createdAt,value
2018-09-07T00:18:58.427Z,16.40
2018-09-07T00:21:26.438Z,16.80
2018-09-07T00:23:54.422Z,15.50
2018-09-07T00:31:16.741Z,16.25
2018-09-07T00:48:27.712Z,14.85
2018-09-07T00:55:50.447Z,15.20
2018-09-07T01:10:34.911Z,14.95
2018-09-07T01:45:06.174Z,16.50
2018-09-07T01:54:55.678Z,16.80
2018-09-07T01:57:24.554Z,15.60
2018-09-07T02:12:08.434Z,17.40
2018-09-07T02:14:36.394Z,15.90
2018-09-07T02:17:04.483Z,15.70
2018-09-07T02:19:32.457Z,16.20
2018-09-07T02:22:00.356Z,16.67
2018-09-07T02:24:29.249Z,16.60
2018-09-07T02:26:57.295Z,16.10
2018-09-07T02:29:25.317Z,16.67
2018-09-07T02:34:39.264Z,16.50
2018-09-07T02:37:07.523Z,16.17
2018-09-07T02:40:38.764Z,16.87
2018-09-07T02:43:07.091Z,16.43
2018-09-07T02:45:36.021Z,16.60
2018-09-07T02:48:04.043Z,15.67
2018-09-07T02:50:32.137Z,16.30
2018-09-07T02:53:00.044Z,17.20
2018-09-07T02:55:27.919Z,18.00
2018-09-07T02:57:55.951Z,17.07
2018-09-07T03:00:23.960Z,16.35
2018-09-07T03:02:51.834Z,17.40
2018-09-07T03:05:19.897Z,16.90
2018-09-07T03:07:47.873Z,17.20
2018-09-07T03:10:15.765Z,16.90
2018-09-07T03:12:43.986Z,18.05
2018-09-07T03:15:12.041Z,17.17
2018-09-07T03:17:40.380Z,17.00
2018-09-07T03:20:08.498Z,17.73
2018-09-07T03:22:36.447Z,16.40
2018-09-07T03:25:04.548Z,16.75
2018-09-07T03:27:32.482Z,16.70
2018-09-07T03:30:00.405Z,16.30
2018-09-07T03:32:28.317Z,17.60
2018-09-07T03:34:57.165Z,16.40
2018-09-07T03:37:25.107Z,16.85
2018-09-07T03:39:52.994Z,16.27
2018-09-07T03:42:21.141Z,16.20
2018-09-07T03:44:49.043Z,16.75
2018-09-07T03:47:17.122Z,16.90
2018-09-07T03:49:46.089Z,17.40
2018-09-07T03:52:14.139Z,16.43
2018-09-07T03:54:42.076Z,17.13
2018-09-07T03:57:10.017Z,16.67
2018-09-07T03:59:38.077Z,17.23
2018-09-07T04:02:06.238Z,16.50
2018-09-07T04:04:34.236Z,17.97
2018-09-07T04:07:02.129Z,17.43
2018-09-07T04:09:30.127Z,18.17
2018-09-07T04:11:59.117Z,18.90
2018-09-07T04:14:27.220Z,18.47
2018-09-07T04:16:55.052Z,17.90
2018-09-07T04:19:23.048Z,20.27
2018-09-07T04:21:51.138Z,19.40
2018-09-07T04:24:19.345Z,18.90
2018-09-07T04:26:47.265Z,18.90
2018-09-07T04:29:15.108Z,18.75
2018-09-07T04:31:43.193Z,20.30
2018-09-07T04:34:11.117Z,19.70
2018-09-07T04:36:39.114Z,20.30
2018-09-07T04:39:07.740Z,21.15
2018-09-07T04:41:35.893Z,20.75
2018-09-07T04:44:04.102Z,21.57
2018-09-07T04:46:31.974Z,21.05
2018-09-07T04:49:00.042Z,20.35
2018-09-07T04:51:27.998Z,22.30
2018-09-07T04:53:55.889Z,21.10
2018-09-07T04:56:23.997Z,20.70
2018-09-07T04:58:51.919Z,22.45
2018-09-07T05:01:20.001Z,21.90
2018-09-07T05:03:47.970Z,22.45
2018-09-07T05:06:15.963Z,21.80
2018-09-07T05:08:44.134Z,22.90
2018-09-07T05:11:12.111Z,21.50
2018-09-07T05:13:40.212Z,22.75
2018-09-07T05:16:08.211Z,21.63
2018-09-07T05:18:36.140Z,23.05
2018-09-07T05:21:04.040Z,22.15
2018-09-07T05:23:32.129Z,22.87
2018-09-07T05:26:00.409Z,22.50
2018-09-07T05:28:28.549Z,22.37
2018-09-07T05:30:57.466Z,21.15
2018-09-07T05:33:25.442Z,21.45
2018-09-07T05:35:53.341Z,20.90
2018-09-07T05:38:21.269Z,21.50
2018-09-07T05:40:49.271Z,22.50
2018-09-07T05:43:17.214Z,22.10
2018-09-07T05:45:45.138Z,20.70
2018-09-07T05:48:13.094Z,21.33
2018-09-07T05:50:40.957Z,20.50
2018-09-07T05:53:08.857Z,20.93
2018-09-07T05:55:36.761Z,20.27
2018-09-07T05:58:04.672Z,22.03
2018-09-07T06:00:32.528Z,21.40
2018-09-07T06:03:00.442Z,20.73
2018-09-07T06:05:28.297Z,22.20
2018-09-07T06:07:56.230Z,20.83
2018-09-07T06:10:24.158Z,22.00
2018-09-07T06:12:52.109Z,21.77
2018-09-07T06:15:19.957Z,22.80
2018-09-07T06:17:47.877Z,22.20
2018-09-07T06:20:15.829Z,21.03
2018-09-07T06:22:43.851Z,23.40
2018-09-07T06:25:11.667Z,22.40
2018-09-07T06:27:40.540Z,21.40
2018-09-07T06:30:08.407Z,23.70
2018-09-07T06:32:37.391Z,23.00
2018-09-07T06:35:05.346Z,22.60
2018-09-07T06:37:33.290Z,22.90
2018-09-07T06:40:02.176Z,23.37
2018-09-07T06:42:30.102Z,23.33
2018-09-07T06:44:57.944Z,22.57
2018-09-07T06:47:25.817Z,23.57
2018-09-07T06:49:53.725Z,23.20
2018-09-07T06:52:22.528Z,24.30
2018-09-07T06:54:50.470Z,23.57
2018-09-07T06:57:18.491Z,23.70
2018-09-07T06:59:46.409Z,24.00
2018-09-07T07:02:14.337Z,24.07
2018-09-07T07:04:43.245Z,22.00
2018-09-07T07:07:11.106Z,23.57
2018-09-07T07:09:38.973Z,23.67
2018-09-07T07:12:06.958Z,24.20
2018-09-07T07:14:34.884Z,21.80
2018-09-07T07:17:02.801Z,23.30
2018-09-07T07:19:30.823Z,22.50
2018-09-07T07:21:59.762Z,23.37
2018-09-07T07:24:27.775Z,24.70
2018-09-07T07:26:55.694Z,25.03
2018-09-07T07:29:27.586Z,24.10
2018-09-07T07:31:55.734Z,24.05
2018-09-07T07:34:23.837Z,23.87
2018-09-07T07:39:19.206Z,25.10
2018-09-07T07:41:49.225Z,25.60
2018-09-07T07:44:17.119Z,25.77
2018-09-07T07:49:18.041Z,25.20
2018-09-07T07:51:51.657Z,25.00
2018-09-07T07:54:20.005Z,23.50
2018-09-07T07:59:22.902Z,25.10
2018-09-07T08:01:52.183Z,25.65
2018-09-07T08:04:21.364Z,24.70
2018-09-07T08:06:50.682Z,24.20
2018-09-07T08:09:24.636Z,24.05
2018-09-07T08:11:52.517Z,27.20
2018-09-07T08:14:21.401Z,26.20
2018-09-07T08:21:45.012Z,24.07
2018-09-07T08:24:12.872Z,24.65
2018-09-07T08:26:41.034Z,23.80
2018-09-07T08:29:11.005Z,24.40
2018-09-07T08:31:39.933Z,24.80
2018-09-07T08:34:09.873Z,24.70
2018-09-07T08:39:07.012Z,24.55
2018-09-07T08:41:35.952Z,23.20
2018-09-07T08:44:04.274Z,22.30
2018-09-07T08:46:34.289Z,24.45
2018-09-07T08:49:02.180Z,22.97
2018-09-07T08:51:30.073Z,23.90
2018-09-07T08:53:57.929Z,22.05
2018-09-07T08:56:27.820Z,22.10
2018-09-07T08:58:55.729Z,21.90
2018-09-07T09:01:23.617Z,22.30
2018-09-07T09:03:51.516Z,23.70
2018-09-07T09:06:19.600Z,21.43
2018-09-07T09:08:48.507Z,22.83
2018-09-07T09:13:43.653Z,21.30
2018-09-07T09:16:11.623Z,21.97
2018-09-07T09:21:06.746Z,21.00
2018-09-07T09:28:29.966Z,20.25
2018-09-07T09:33:24.993Z,21.30
2018-09-07T09:35:52.901Z,20.90
2018-09-07T09:38:20.804Z,20.10
2018-09-07T09:43:16.821Z,22.45
2018-09-07T09:45:45.676Z,21.50
2018-09-07T10:00:36.046Z,20.40
2018-09-07T10:17:56.721Z,22.50
2018-09-07T10:20:29.321Z,23.00
2018-09-07T10:25:25.363Z,22.40
2018-09-07T10:57:51.651Z,24.20
2018-09-07T11:00:20.591Z,23.57
2018-09-07T11:02:49.473Z,24.27
2018-09-07T11:05:17.415Z,26.05
2018-09-07T11:07:45.328Z,26.10
2018-09-07T11:10:13.312Z,26.10
2018-09-07T11:12:42.205Z,27.60
2018-09-07T12:06:44.383Z,25.07
2018-09-07T12:09:12.281Z,26.65
2018-09-07T12:11:40.253Z,25.10
2018-09-07T12:16:35.361Z,26.10
2018-09-07T12:19:03.276Z,25.43
2018-09-07T12:21:32.175Z,25.90
2018-09-07T12:24:00.115Z,28.40
2018-09-07T12:26:28.054Z,27.83
2018-09-07T12:28:55.934Z,28.23
2018-09-07T12:31:24.834Z,28.43
2018-09-07T12:33:52.793Z,27.87
2018-09-07T12:36:21.624Z,28.33
2018-09-07T12:38:50.489Z,28.53
2018-09-07T12:51:07.845Z,29.13
2018-09-07T12:56:06.377Z,29.40
2018-09-07T12:58:34.294Z,29.70
2018-09-07T13:08:23.564Z,30.00
2018-09-07T13:10:51.482Z,30.37
2018-09-07T13:13:19.340Z,29.30
2018-09-07T13:15:47.193Z,29.90
2018-09-07T13:18:15.110Z,27.00
2018-09-07T13:23:11.159Z,29.20
2018-09-07T13:35:27.771Z,28.80
2018-09-07T13:37:55.658Z,29.10
2018-09-07T13:40:23.534Z,26.30
2018-09-07T13:42:51.430Z,26.17
2018-09-07T13:45:19.370Z,25.57
2018-09-07T13:47:47.314Z,26.03
2018-09-07T13:50:15.247Z,25.00
2018-09-07T14:24:36.252Z,21.20
2018-09-07T14:27:05.154Z,21.93
2018-09-07T14:29:33.093Z,20.90
2018-09-07T14:32:00.997Z,22.53
2018-09-07T14:36:55.969Z,20.10
2018-09-07T14:39:24.068Z,20.10
2018-09-07T15:16:13.861Z,18.30
2018-09-07T15:18:41.755Z,17.85
2018-09-07T15:21:09.809Z,17.00
2018-09-07T15:23:37.782Z,17.70
2018-09-07T15:28:33.869Z,17.80
2018-09-07T15:31:01.733Z,17.60
2018-09-07T15:35:57.743Z,16.90
2018-09-07T15:40:53.945Z,16.20
2018-09-07T15:43:21.862Z,16.40
2018-09-07T15:45:49.785Z,15.80
2018-09-07T15:48:18.690Z,15.05
2018-09-07T15:53:14.612Z,15.27
2018-09-07T15:55:46.426Z,14.90
2018-09-07T15:58:14.353Z,14.87
2018-09-07T16:00:42.211Z,15.50
2018-09-07T16:03:10.112Z,15.90
2018-09-07T16:05:38.128Z,16.90
2018-09-07T18:52:46.879Z,10.45
2018-09-07T19:02:36.414Z,7.00
2018-09-07T19:05:04.334Z,6.20
2018-09-07T19:07:32.730Z,5.90
2018-09-07T19:10:00.778Z,5.40
2018-09-07T19:12:28.725Z,5.80
2018-09-07T19:14:56.666Z,4.60
2018-09-07T19:17:24.532Z,4.90
2018-09-07T19:19:52.468Z,5.07
2018-09-07T19:22:20.304Z,4.60
2018-09-07T19:24:48.426Z,4.60
2018-09-07T19:27:16.261Z,4.60
2018-09-07T19:29:45.195Z,4.37
2018-09-07T19:32:13.054Z,4.50
2018-09-07T19:34:40.975Z,4.45
2018-09-07T19:37:08.990Z,4.25
2018-09-07T19:39:37.046Z,5.00
2018-09-07T19:42:05.056Z,5.30
2018-09-07T19:44:33.084Z,3.97
2018-09-07T19:47:01.014Z,4.30
2018-09-07T19:49:29.006Z,3.90
2018-09-07T19:51:57.125Z,4.20
2018-09-07T19:54:25.287Z,4.70
2018-09-07T19:56:53.423Z,4.05
2018-09-07T19:59:21.579Z,3.67
2018-09-07T20:01:49.501Z,4.10
2018-09-07T20:04:17.336Z,3.90
2018-09-07T20:06:45.725Z,3.77
2018-09-07T20:09:13.460Z,3.67
2018-09-07T20:11:41.389Z,3.30
2018-09-07T20:14:09.369Z,3.40
2018-09-07T20:16:37.630Z,3.60
2018-09-07T20:19:06.609Z,3.30
2018-09-07T20:21:34.721Z,3.20
2018-09-07T20:24:02.900Z,3.30
2018-09-07T20:28:58.289Z,3.65
2018-09-07T20:31:26.312Z,3.45
2018-09-07T20:33:54.206Z,3.20
2018-09-07T20:36:23.043Z,3.50
2018-09-07T20:38:51.323Z,3.80
2018-09-07T20:41:19.446Z,3.55
2018-09-07T20:43:47.333Z,3.70
2018-09-07T20:46:15.345Z,3.83
2018-09-07T20:48:44.310Z,3.95
2018-09-07T20:51:12.191Z,4.13
2018-09-07T20:53:40.222Z,3.50
2018-09-07T20:56:08.388Z,3.63
2018-09-07T20:58:36.565Z,4.10
2018-09-07T21:01:04.490Z,4.65
2018-09-07T21:03:32.594Z,4.90
2018-09-07T21:06:04.977Z,5.07
2018-09-07T21:08:32.909Z,5.30
2018-09-07T21:11:01.018Z,5.40
2018-09-07T21:13:29.609Z,5.80
2018-09-07T21:15:57.678Z,6.40
2018-09-07T21:18:26.730Z,5.15
2018-09-07T21:20:54.813Z,5.30
2018-09-07T21:23:22.757Z,6.10
2018-09-07T21:28:27.388Z,5.70
2018-09-07T21:30:55.333Z,6.20
2018-09-07T21:33:23.245Z,6.80
2018-09-07T21:35:51.171Z,5.97
2018-09-07T21:38:19.054Z,5.97
2018-09-07T21:40:46.946Z,6.30
2018-09-07T21:43:14.865Z,6.70
2018-09-07T21:45:42.725Z,6.33
2018-09-07T21:48:10.646Z,5.80
2018-09-07T21:50:38.618Z,5.80
2018-09-07T21:53:06.551Z,6.00
2018-09-07T21:55:34.443Z,5.80
2018-09-07T21:58:02.319Z,6.30
2018-09-07T22:00:30.291Z,5.97
2018-09-07T22:02:58.173Z,6.27
2018-09-07T22:05:26.110Z,5.63
2018-09-07T22:07:59.505Z,6.20
2018-09-07T22:10:27.519Z,6.63
2018-09-07T22:12:55.408Z,6.77
2018-09-07T22:15:23.343Z,6.33
2018-09-07T22:17:51.249Z,6.70
2018-09-07T22:20:19.103Z,7.00
2018-09-07T22:22:47.041Z,7.17
2018-09-07T22:25:14.930Z,7.47
2018-09-07T22:27:44.057Z,7.00
2018-09-07T22:30:12.226Z,6.50
2018-09-07T22:32:40.077Z,7.30
2018-09-07T22:35:08.172Z,7.63
2018-09-07T22:37:36.138Z,7.73
2018-09-07T22:40:04.351Z,7.57
2018-09-07T22:42:32.303Z,7.50
2018-09-07T22:45:01.767Z,8.13
2018-09-07T22:47:29.816Z,7.90
2018-09-07T22:49:57.791Z,7.40
2018-09-07T22:52:25.786Z,8.00
2018-09-07T22:54:53.710Z,7.67
2018-09-07T22:57:21.664Z,8.20
2018-09-07T22:59:50.783Z,9.17
2018-09-07T23:02:19.237Z,8.63
2018-09-07T23:04:47.178Z,8.33
2018-09-07T23:07:15.054Z,8.90
2018-09-07T23:09:43.864Z,8.77
2018-09-07T23:12:11.801Z,8.60
2018-09-07T23:14:39.689Z,8.50
2018-09-07T23:17:08.518Z,8.87
2018-09-07T23:19:36.535Z,9.30
2018-09-07T23:22:06.586Z,9.20
2018-09-07T23:24:34.509Z,8.53
2018-09-07T23:27:02.449Z,8.95
2018-09-07T23:29:30.380Z,8.60
2018-09-07T23:34:25.402Z,9.70
2018-09-07T23:43:55.862Z,8.40
2018-09-07T23:46:23.838Z,8.60
2018-09-07T23:48:51.777Z,8.50
2018-09-07T23:51:19.592Z,8.23
2018-09-07T23:53:47.539Z,7.83
2018-09-07T23:56:16.369Z,8.47
2018-09-07T23:58:44.309Z,7.50
